sensor_id;sensor_type;location;lat;lon;timestamp;pressure;altitude;pressure_sealevel;temperature;humidity
63916;BME280;50094;51.356;-0.196;2023-02-02T00:01:11;101844.83;;;26.63;23.21
63916;BME280;50094;51.356;-0.196;2023-02-02T00:03:39;101845.18;;;26.65;23.21
63916;BME280;50094;51.356;-0.196;2023-02-02T00:06:07;101849.07;;;26.59;23.23
63916;BME280;50094;51.356;-0.196;2023-02-02T00:08:34;101852.38;;;26.61;23.21
63916;BME280;50094;51.356;-0.196;2023-02-02T00:11:02;101850.13;;;26.58;23.21
63916;BME280;50094;51.356;-0.196;2023-02-02T00:13:29;101844.73;;;26.56;23.22
63916;BME280;50094;51.356;-0.196;2023-02-02T00:15:56;101852.51;;;26.58;23.20
63916;BME280;50094;51.356;-0.196;2023-02-02T00:18:23;101855.61;;;26.54;23.19
63916;BME280;50094;51.356;-0.196;2023-02-02T00:20:51;101858.89;;;26.78;23.20
63916;BME280;50094;51.356;-0.196;2023-02-02T00:23:18;101856.09;;;26.77;23.19
63916;BME280;50094;51.356;-0.196;2023-02-02T00:25:48;101857.18;;;26.75;23.17
63916;BME280;50094;51.356;-0.196;2023-02-02T00:28:16;101856.82;;;26.47;23.16
63916;BME280;50094;51.356;-0.196;2023-02-02T00:30:43;101861.23;;;26.44;23.17
63916;BME280;50094;51.356;-0.196;2023-02-02T00:33:11;101857.57;;;26.40;23.21
63916;BME280;50094;51.356;-0.196;2023-02-02T00:35:40;101861.19;;;26.38;23.24
63916;BME280;50094;51.356;-0.196;2023-02-02T00:38:07;101855.93;;;26.42;23.22
63916;BME280;50094;51.356;-0.196;2023-02-02T00:40:34;101854.34;;;26.39;23.24
63916;BME280;50094;51.356;-0.196;2023-02-02T00:43:01;101852.59;;;26.65;23.24
63916;BME280;50094;51.356;-0.196;2023-02-02T00:45:28;101849.99;;;26.39;23.24
63916;BME280;50094;51.356;-0.196;2023-02-02T00:47:55;101844.30;;;26.59;23.26
63916;BME280;50094;51.356;-0.196;2023-02-02T00:50:22;101845.14;;;26.33;23.26
63916;BME280;50094;51.356;-0.196;2023-02-02T00:52:50;101840.19;;;26.29;23.29
63916;BME280;50094;51.356;-0.196;2023-02-02T00:55:18;101846.42;;;26.55;23.32
63916;BME280;50094;51.356;-0.196;2023-02-02T00:57:45;101844.25;;;26.78;23.35
63916;BME280;50094;51.356;-0.196;2023-02-02T01:00:15;101847.36;;;26.32;23.36
63916;BME280;50094;51.356;-0.196;2023-02-02T01:00:21;101845.97;;;26.32;23.35
63916;BME280;50094;51.356;-0.196;2023-02-02T01:02:48;101845.10;;;26.63;23.34
63916;BME280;50094;51.356;-0.196;2023-02-02T01:05:16;101846.07;;;26.35;23.32
63916;BME280;50094;51.356;-0.196;2023-02-02T01:07:44;101850.60;;;26.61;23.33
63916;BME280;50094;51.356;-0.196;2023-02-02T01:10:13;101847.56;;;26.60;23.35
63916;BME280;50094;51.356;-0.196;2023-02-02T01:12:41;101848.96;;;26.64;23.33
63916;BME280;50094;51.356;-0.196;2023-02-02T01:15:10;101848.01;;;26.31;23.36
63916;BME280;50094;51.356;-0.196;2023-02-02T01:17:38;101849.75;;;26.31;23.37
63916;BME280;50094;51.356;-0.196;2023-02-02T01:20:09;101848.90;;;26.34;23.36
63916;BME280;50094;51.356;-0.196;2023-02-02T01:22:37;101840.26;;;26.60;23.36
63916;BME280;50094;51.356;-0.196;2023-02-02T01:25:04;101837.78;;;26.58;23.36
63916;BME280;50094;51.356;-0.196;2023-02-02T01:27:31;101841.09;;;26.33;23.35
63916;BME280;50094;51.356;-0.196;2023-02-02T01:29:58;101844.28;;;26.58;23.37
63916;BME280;50094;51.356;-0.196;2023-02-02T01:32:26;101847.61;;;26.31;23.39
63916;BME280;50094;51.356;-0.196;2023-02-02T01:34:53;101848.29;;;26.32;23.39
63916;BME280;50094;51.356;-0.196;2023-02-02T01:37:20;101846.72;;;26.33;23.39
63916;BME280;50094;51.356;-0.196;2023-02-02T01:39:47;101848.54;;;26.30;23.41
63916;BME280;50094;51.356;-0.196;2023-02-02T01:42:19;101849.22;;;26.30;23.42
63916;BME280;50094;51.356;-0.196;2023-02-02T01:45:24;101846.23;;;26.28;23.44
63916;BME280;50094;51.356;-0.196;2023-02-02T01:47:54;101843.16;;;26.30;23.44
63916;BME280;50094;51.356;-0.196;2023-02-02T01:50:25;101845.35;;;26.29;23.43
63916;BME280;50094;51.356;-0.196;2023-02-02T01:52:56;101846.78;;;26.53;23.44
63916;BME280;50094;51.356;-0.196;2023-02-02T01:55:27;101846.08;;;26.51;23.46
63916;BME280;50094;51.356;-0.196;2023-02-02T01:57:59;101844.69;;;26.54;23.47
63916;BME280;50094;51.356;-0.196;2023-02-02T02:00:28;101841.64;;;26.32;23.45
63916;BME280;50094;51.356;-0.196;2023-02-02T02:02:57;101844.68;;;26.54;23.46
63916;BME280;50094;51.356;-0.196;2023-02-02T02:05:29;101844.04;;;26.55;23.46
63916;BME280;50094;51.356;-0.196;2023-02-02T02:08:04;101849.76;;;26.29;23.47
63916;BME280;50094;51.356;-0.196;2023-02-02T02:10:33;101851.01;;;26.82;23.46
63916;BME280;50094;51.356;-0.196;2023-02-02T02:13:01;101843.38;;;26.54;23.48
63916;BME280;50094;51.356;-0.196;2023-02-02T02:15:29;101843.32;;;26.53;23.48
63916;BME280;50094;51.356;-0.196;2023-02-02T02:18:09;101844.82;;;26.27;23.48
63916;BME280;50094;51.356;-0.196;2023-02-02T02:20:54;101842.15;;;26.27;23.48
63916;BME280;50094;51.356;-0.196;2023-02-02T02:25:50;101846.14;;;26.53;23.51
63916;BME280;50094;51.356;-0.196;2023-02-02T02:28:40;101845.79;;;26.28;23.51
63916;BME280;50094;51.356;-0.196;2023-02-02T02:31:34;101847.93;;;26.57;23.51
63916;BME280;50094;51.356;-0.196;2023-02-02T02:34:05;101839.97;;;26.31;23.50
63916;BME280;50094;51.356;-0.196;2023-02-02T02:36:40;101837.05;;;26.57;23.51
63916;BME280;50094;51.356;-0.196;2023-02-02T02:39:15;101837.34;;;26.30;23.49
63916;BME280;50094;51.356;-0.196;2023-02-02T02:41:48;101832.33;;;26.55;23.49
63916;BME280;50094;51.356;-0.196;2023-02-02T02:44:17;101827.82;;;26.27;23.51
63916;BME280;50094;51.356;-0.196;2023-02-02T02:46:46;101829.08;;;26.51;23.51
63916;BME280;50094;51.356;-0.196;2023-02-02T02:49:13;101833.00;;;26.25;23.51
63916;BME280;50094;51.356;-0.196;2023-02-02T02:51:45;101836.07;;;26.20;23.53
63916;BME280;50094;51.356;-0.196;2023-02-02T02:54:15;101838.37;;;26.50;23.53
63916;BME280;50094;51.356;-0.196;2023-02-02T02:56:59;101839.43;;;26.51;23.54
63916;BME280;50094;51.356;-0.196;2023-02-02T02:59:36;101839.11;;;26.21;23.54
63916;BME280;50094;51.356;-0.196;2023-02-02T03:02:19;101834.55;;;26.49;23.55
63916;BME280;50094;51.356;-0.196;2023-02-02T03:04:58;101830.44;;;26.19;23.56
63916;BME280;50094;51.356;-0.196;2023-02-02T03:07:33;101831.66;;;26.46;23.57
63916;BME280;50094;51.356;-0.196;2023-02-02T03:10:04;101835.79;;;26.22;23.56
63916;BME280;50094;51.356;-0.196;2023-02-02T03:12:34;101839.27;;;26.54;23.55
63916;BME280;50094;51.356;-0.196;2023-02-02T03:15:10;101841.08;;;26.27;23.54
63916;BME280;50094;51.356;-0.196;2023-02-02T03:17:37;101841.43;;;26.24;23.54
63916;BME280;50094;51.356;-0.196;2023-02-02T03:20:05;101840.84;;;26.27;23.53
63916;BME280;50094;51.356;-0.196;2023-02-02T03:22:32;101842.39;;;26.25;23.53
63916;BME280;50094;51.356;-0.196;2023-02-02T03:24:59;101840.96;;;26.50;23.53
63916;BME280;50094;51.356;-0.196;2023-02-02T03:27:27;101842.93;;;26.45;23.55
63916;BME280;50094;51.356;-0.196;2023-02-02T03:29:54;101846.33;;;26.19;23.56
63916;BME280;50094;51.356;-0.196;2023-02-02T03:32:22;101850.02;;;26.20;23.56
63916;BME280;50094;51.356;-0.196;2023-02-02T03:34:49;101848.14;;;26.16;23.57
63916;BME280;50094;51.356;-0.196;2023-02-02T03:37:16;101851.21;;;26.45;23.56
63916;BME280;50094;51.356;-0.196;2023-02-02T03:39:44;101849.86;;;26.46;23.55
63916;BME280;50094;51.356;-0.196;2023-02-02T03:42:11;101843.68;;;26.43;23.56
63916;BME280;50094;51.356;-0.196;2023-02-02T03:44:38;101839.22;;;26.12;23.56
63916;BME280;50094;51.356;-0.196;2023-02-02T03:47:05;101838.58;;;26.14;23.55
63916;BME280;50094;51.356;-0.196;2023-02-02T03:49:32;101842.10;;;26.42;23.55
63916;BME280;50094;51.356;-0.196;2023-02-02T03:51:59;101839.24;;;26.39;23.55
63916;BME280;50094;51.356;-0.196;2023-02-02T03:54:26;101839.97;;;26.40;23.53
63916;BME280;50094;51.356;-0.196;2023-02-02T03:56:53;101838.78;;;26.42;23.53
63916;BME280;50094;51.356;-0.196;2023-02-02T03:59:20;101840.14;;;26.44;23.52
63916;BME280;50094;51.356;-0.196;2023-02-02T04:01:47;101840.79;;;26.20;23.50
63916;BME280;50094;51.356;-0.196;2023-02-02T04:04:15;101840.76;;;26.41;23.52
63916;BME280;50094;51.356;-0.196;2023-02-02T04:06:42;101840.39;;;26.37;23.52
63916;BME280;50094;51.356;-0.196;2023-02-02T04:09:09;101840.93;;;26.09;23.52
63916;BME280;50094;51.356;-0.196;2023-02-02T04:11:36;101842.88;;;26.07;23.52
63916;BME280;50094;51.356;-0.196;2023-02-02T04:14:03;101844.42;;;26.06;23.52
63916;BME280;50094;51.356;-0.196;2023-02-02T04:16:30;101848.81;;;26.35;23.51
63916;BME280;50094;51.356;-0.196;2023-02-02T04:18:58;101851.80;;;26.55;23.51
63916;BME280;50094;51.356;-0.196;2023-02-02T04:21:25;101854.41;;;26.07;23.50
63916;BME280;50094;51.356;-0.196;2023-02-02T04:23:52;101848.98;;;26.27;23.53
63916;BME280;50094;51.356;-0.196;2023-02-02T04:26:19;101853.89;;;26.19;23.56
63916;BME280;50094;51.356;-0.196;2023-02-02T04:28:46;101850.03;;;26.22;23.57
63916;BME280;50094;51.356;-0.196;2023-02-02T04:31:13;101850.79;;;25.94;23.59
63916;BME280;50094;51.356;-0.196;2023-02-02T04:33:40;101853.71;;;25.92;23.61
63916;BME280;50094;51.356;-0.196;2023-02-02T04:36:07;101854.92;;;26.17;23.60
63916;BME280;50094;51.356;-0.196;2023-02-02T04:38:34;101856.54;;;26.16;23.61
63916;BME280;50094;51.356;-0.196;2023-02-02T04:41:06;101854.88;;;25.90;23.62
63916;BME280;50094;51.356;-0.196;2023-02-02T04:43:33;101851.84;;;26.16;23.62
63916;BME280;50094;51.356;-0.196;2023-02-02T04:46:00;101855.57;;;26.41;23.62
63916;BME280;50094;51.356;-0.196;2023-02-02T04:48:28;101862.44;;;26.38;23.62
63916;BME280;50094;51.356;-0.196;2023-02-02T04:50:59;101859.98;;;26.17;23.62
63916;BME280;50094;51.356;-0.196;2023-02-02T04:53:27;101857.37;;;25.90;23.62
63916;BME280;50094;51.356;-0.196;2023-02-02T04:55:54;101859.53;;;25.87;23.63
63916;BME280;50094;51.356;-0.196;2023-02-02T04:58:22;101860.92;;;26.14;23.62
63916;BME280;50094;51.356;-0.196;2023-02-02T05:00:49;101862.45;;;26.33;23.63
63916;BME280;50094;51.356;-0.196;2023-02-02T05:03:16;101862.32;;;26.11;23.64
63916;BME280;50094;51.356;-0.196;2023-02-02T05:05:43;101859.42;;;26.31;23.64
63916;BME280;50094;51.356;-0.196;2023-02-02T05:08:10;101860.38;;;26.09;23.64
63916;BME280;50094;51.356;-0.196;2023-02-02T05:10:39;101857.57;;;25.79;23.67
63916;BME280;50094;51.356;-0.196;2023-02-02T05:13:06;101858.46;;;26.07;23.67
63916;BME280;50094;51.356;-0.196;2023-02-02T05:15:34;101860.10;;;25.79;23.67
63916;BME280;50094;51.356;-0.196;2023-02-02T05:18:02;101861.82;;;26.08;23.67
63916;BME280;50094;51.356;-0.196;2023-02-02T05:20:29;101864.76;;;25.81;23.65
63916;BME280;50094;51.356;-0.196;2023-02-02T05:22:56;101866.80;;;26.31;23.65
63916;BME280;50094;51.356;-0.196;2023-02-02T05:25:23;101863.95;;;26.05;23.65
63916;BME280;50094;51.356;-0.196;2023-02-02T05:27:51;101863.02;;;26.03;23.66
63916;BME280;50094;51.356;-0.196;2023-02-02T05:30:19;101859.37;;;26.28;23.65
63916;BME280;50094;51.356;-0.196;2023-02-02T05:32:46;101853.89;;;26.08;23.64
63916;BME280;50094;51.356;-0.196;2023-02-02T05:35:13;101849.34;;;26.04;23.64
63916;BME280;50094;51.356;-0.196;2023-02-02T05:37:42;101848.77;;;26.01;23.65
63916;BME280;50094;51.356;-0.196;2023-02-02T05:40:10;101845.17;;;25.79;23.66
63916;BME280;50094;51.356;-0.196;2023-02-02T05:42:38;101847.69;;;25.81;23.69
63916;BME280;50094;51.356;-0.196;2023-02-02T05:45:06;101847.59;;;25.88;23.69
63916;BME280;50094;51.356;-0.196;2023-02-02T05:47:33;101845.17;;;26.16;23.71
63916;BME280;50094;51.356;-0.196;2023-02-02T05:50:00;101844.79;;;26.17;23.73
63916;BME280;50094;51.356;-0.196;2023-02-02T05:52:28;101847.31;;;26.18;23.75
63916;BME280;50094;51.356;-0.196;2023-02-02T05:54:59;101846.53;;;25.94;23.78
63916;BME280;50094;51.356;-0.196;2023-02-02T05:57:26;101848.35;;;25.98;23.79
63916;BME280;50094;51.356;-0.196;2023-02-02T05:59:53;101852.81;;;26.04;23.80
63916;BME280;50094;51.356;-0.196;2023-02-02T06:02:21;101854.44;;;26.35;23.80
63916;BME280;50094;51.356;-0.196;2023-02-02T06:04:48;101854.30;;;26.38;23.81
63916;BME280;50094;51.356;-0.196;2023-02-02T06:07:16;101852.65;;;26.13;23.82
63916;BME280;50094;51.356;-0.196;2023-02-02T06:09:44;101853.82;;;26.45;23.80
63916;BME280;50094;51.356;-0.196;2023-02-02T06:12:11;101853.79;;;26.21;23.80
63916;BME280;50094;51.356;-0.196;2023-02-02T06:14:37;101853.88;;;26.53;23.80
63916;BME280;50094;51.356;-0.196;2023-02-02T06:17:04;101852.97;;;26.26;23.81
63916;BME280;50094;51.356;-0.196;2023-02-02T06:19:31;101856.76;;;26.53;23.81
63916;BME280;50094;51.356;-0.196;2023-02-02T06:21:58;101861.27;;;26.53;23.81
63916;BME280;50094;51.356;-0.196;2023-02-02T06:24:25;101858.96;;;26.31;23.81
63916;BME280;50094;51.356;-0.196;2023-02-02T06:26:53;101852.13;;;26.60;23.79
63916;BME280;50094;51.356;-0.196;2023-02-02T06:29:20;101852.67;;;26.32;23.80
63916;BME280;50094;51.356;-0.196;2023-02-02T06:31:48;101857.60;;;26.32;23.80
63916;BME280;50094;51.356;-0.196;2023-02-02T06:34:16;101860.54;;;26.61;23.79
63916;BME280;50094;51.356;-0.196;2023-02-02T06:36:43;101864.80;;;26.38;23.75
63916;BME280;50094;51.356;-0.196;2023-02-02T06:39:11;101865.70;;;26.37;23.73
63916;BME280;50094;51.356;-0.196;2023-02-02T06:41:39;101865.92;;;26.36;23.73
63916;BME280;50094;51.356;-0.196;2023-02-02T06:44:06;101865.47;;;26.34;23.72
63916;BME280;50094;51.356;-0.196;2023-02-02T06:46:33;101869.48;;;26.32;23.71
63916;BME280;50094;51.356;-0.196;2023-02-02T06:49:00;101871.63;;;26.32;23.69
63916;BME280;50094;51.356;-0.196;2023-02-02T06:51:28;101871.56;;;26.33;23.67
63916;BME280;50094;51.356;-0.196;2023-02-02T06:53:55;101873.44;;;26.31;23.66
63916;BME280;50094;51.356;-0.196;2023-02-02T06:56:22;101873.56;;;26.32;23.64
63916;BME280;50094;51.356;-0.196;2023-02-02T06:58:49;101874.45;;;26.31;23.62
63916;BME280;50094;51.356;-0.196;2023-02-02T07:01:16;101870.93;;;26.31;23.60
63916;BME280;50094;51.356;-0.196;2023-02-02T07:03:47;101871.26;;;26.28;23.60
63916;BME280;50094;51.356;-0.196;2023-02-02T07:06:15;101875.98;;;26.31;23.58
63916;BME280;50094;51.356;-0.196;2023-02-02T07:08:44;101874.72;;;26.27;23.58
63916;BME280;50094;51.356;-0.196;2023-02-02T07:11:11;101875.73;;;26.27;23.57
63916;BME280;50094;51.356;-0.196;2023-02-02T07:13:39;101880.13;;;26.24;23.58
63916;BME280;50094;51.356;-0.196;2023-02-02T07:16:07;101882.31;;;26.22;23.58
63916;BME280;50094;51.356;-0.196;2023-02-02T07:18:34;101884.23;;;26.20;23.58
63916;BME280;50094;51.356;-0.196;2023-02-02T07:21:02;101885.30;;;26.19;23.58
63916;BME280;50094;51.356;-0.196;2023-02-02T07:23:31;101883.08;;;26.18;23.58
63916;BME280;50094;51.356;-0.196;2023-02-02T07:26:00;101885.99;;;26.18;23.57
63916;BME280;50094;51.356;-0.196;2023-02-02T07:28:28;101883.36;;;26.46;23.57
63916;BME280;50094;51.356;-0.196;2023-02-02T07:30:55;101884.86;;;26.45;23.57
63916;BME280;50094;51.356;-0.196;2023-02-02T07:33:23;101886.00;;;26.17;23.57
63916;BME280;50094;51.356;-0.196;2023-02-02T07:35:51;101883.35;;;26.45;23.55
63916;BME280;50094;51.356;-0.196;2023-02-02T07:38:18;101888.86;;;26.40;23.55
63916;BME280;50094;51.356;-0.196;2023-02-02T07:40:46;101888.63;;;26.13;23.55
63916;BME280;50094;51.356;-0.196;2023-02-02T07:43:14;101887.76;;;26.61;23.56
63916;BME280;50094;51.356;-0.196;2023-02-02T07:45:41;101891.13;;;26.13;23.55
63916;BME280;50094;51.356;-0.196;2023-02-02T07:48:09;101898.26;;;26.34;23.58
63916;BME280;50094;51.356;-0.196;2023-02-02T07:50:36;101902.50;;;26.38;23.56
63916;BME280;50094;51.356;-0.196;2023-02-02T07:53:03;101900.29;;;26.32;23.58
63916;BME280;50094;51.356;-0.196;2023-02-02T07:55:30;101894.13;;;26.29;23.60
63916;BME280;50094;51.356;-0.196;2023-02-02T07:57:57;101891.87;;;26.31;23.58
63916;BME280;50094;51.356;-0.196;2023-02-02T08:00:24;101887.56;;;26.27;23.57
63916;BME280;50094;51.356;-0.196;2023-02-02T08:02:52;101886.35;;;26.21;23.58
63916;BME280;50094;51.356;-0.196;2023-02-02T08:05:19;101886.94;;;26.18;23.61
63916;BME280;50094;51.356;-0.196;2023-02-02T08:07:47;101887.33;;;26.36;23.67
63916;BME280;50094;51.356;-0.196;2023-02-02T08:10:15;101885.01;;;25.93;23.72
63916;BME280;50094;51.356;-0.196;2023-02-02T08:12:42;101887.19;;;26.22;23.78
63916;BME280;50094;51.356;-0.196;2023-02-02T08:15:10;101886.51;;;26.16;23.83
63916;BME280;50094;51.356;-0.196;2023-02-02T08:17:37;101896.24;;;26.36;23.88
63916;BME280;50094;51.356;-0.196;2023-02-02T08:20:05;101904.94;;;25.85;23.93
63916;BME280;50094;51.356;-0.196;2023-02-02T08:22:33;101913.36;;;26.30;23.97
63916;BME280;50094;51.356;-0.196;2023-02-02T08:25:00;101919.54;;;26.27;24.01
63916;BME280;50094;51.356;-0.196;2023-02-02T08:27:27;101926.42;;;26.22;24.04
63916;BME280;50094;51.356;-0.196;2023-02-02T08:29:54;101937.37;;;26.20;24.08
63916;BME280;50094;51.356;-0.196;2023-02-02T08:32:22;101939.46;;;26.14;24.13
63916;BME280;50094;51.356;-0.196;2023-02-02T08:34:49;101947.35;;;26.11;24.17
63916;BME280;50094;51.356;-0.196;2023-02-02T08:37:15;101943.92;;;26.07;24.19
63916;BME280;50094;51.356;-0.196;2023-02-02T08:39:42;101955.27;;;26.03;24.21
63916;BME280;50094;51.356;-0.196;2023-02-02T08:42:09;101964.15;;;25.99;24.23
63916;BME280;50094;51.356;-0.196;2023-02-02T08:44:36;101971.80;;;25.95;24.26
63916;BME280;50094;51.356;-0.196;2023-02-02T08:47:03;101969.89;;;25.68;24.29
63916;BME280;50094;51.356;-0.196;2023-02-02T08:49:30;101972.59;;;25.71;24.32
63916;BME280;50094;51.356;-0.196;2023-02-02T08:51:57;101973.74;;;25.72;24.34
63916;BME280;50094;51.356;-0.196;2023-02-02T08:54:24;101971.90;;;25.97;24.33
63916;BME280;50094;51.356;-0.196;2023-02-02T08:56:52;101969.22;;;25.78;24.31
63916;BME280;50094;51.356;-0.196;2023-02-02T08:59:19;101973.14;;;25.99;24.31
63916;BME280;50094;51.356;-0.196;2023-02-02T09:01:46;101971.56;;;26.01;24.31
63916;BME280;50094;51.356;-0.196;2023-02-02T09:04:14;101974.86;;;25.79;24.28
63916;BME280;50094;51.356;-0.196;2023-02-02T09:06:42;101977.94;;;25.98;24.30
63916;BME280;50094;51.356;-0.196;2023-02-02T09:09:12;101976.55;;;25.97;24.32
63916;BME280;50094;51.356;-0.196;2023-02-02T09:11:41;101974.60;;;25.83;24.28
63916;BME280;50094;51.356;-0.196;2023-02-02T09:14:09;101974.86;;;26.03;24.28
63916;BME280;50094;51.356;-0.196;2023-02-02T09:16:38;101972.80;;;26.04;24.27
63916;BME280;50094;51.356;-0.196;2023-02-02T09:19:06;101973.59;;;26.02;24.25
63916;BME280;50094;51.356;-0.196;2023-02-02T09:21:33;101972.93;;;25.99;24.26
63916;BME280;50094;51.356;-0.196;2023-02-02T09:24:00;101980.30;;;25.98;24.27
63916;BME280;50094;51.356;-0.196;2023-02-02T09:26:28;101983.61;;;25.99;24.26
63916;BME280;50094;51.356;-0.196;2023-02-02T09:28:58;101986.07;;;25.97;24.25
63916;BME280;50094;51.356;-0.196;2023-02-02T09:31:25;101990.71;;;25.94;24.24
63916;BME280;50094;51.356;-0.196;2023-02-02T09:33:53;101989.22;;;25.92;24.25
63916;BME280;50094;51.356;-0.196;2023-02-02T09:36:22;101993.96;;;25.88;24.26
63916;BME280;50094;51.356;-0.196;2023-02-02T09:38:50;101994.12;;;25.89;24.29
63916;BME280;50094;51.356;-0.196;2023-02-02T09:41:31;101991.35;;;25.92;24.29
63916;BME280;50094;51.356;-0.196;2023-02-02T09:44:07;101991.30;;;25.98;24.28
63916;BME280;50094;51.356;-0.196;2023-02-02T09:46:49;101990.17;;;25.99;24.28
63916;BME280;50094;51.356;-0.196;2023-02-02T09:49:22;101995.26;;;25.98;24.26
63916;BME280;50094;51.356;-0.196;2023-02-02T09:51:55;101995.20;;;26.20;24.27
63916;BME280;50094;51.356;-0.196;2023-02-02T09:54:28;101997.86;;;25.73;24.30
63916;BME280;50094;51.356;-0.196;2023-02-02T09:57:03;102000.49;;;26.20;24.29
63916;BME280;50094;51.356;-0.196;2023-02-02T09:59:39;102001.21;;;25.99;24.28
63916;BME280;50094;51.356;-0.196;2023-02-02T10:02:15;102004.13;;;25.97;24.29
63916;BME280;50094;51.356;-0.196;2023-02-02T10:04:46;102006.58;;;26.00;24.28
63916;BME280;50094;51.356;-0.196;2023-02-02T10:07:18;102009.78;;;26.03;24.25
63916;BME280;50094;51.356;-0.196;2023-02-02T10:09:48;102011.36;;;26.02;24.24
63916;BME280;50094;51.356;-0.196;2023-02-02T10:12:33;102008.30;;;25.95;24.27
63916;BME280;50094;51.356;-0.196;2023-02-02T10:15:10;102011.88;;;25.97;24.28
63916;BME280;50094;51.356;-0.196;2023-02-02T10:17:44;102011.25;;;25.98;24.30
63916;BME280;50094;51.356;-0.196;2023-02-02T10:20:21;102016.58;;;26.00;24.27
63916;BME280;50094;51.356;-0.196;2023-02-02T10:22:52;102021.95;;;25.98;24.28
63916;BME280;50094;51.356;-0.196;2023-02-02T10:25:25;102028.09;;;25.98;24.26
63916;BME280;50094;51.356;-0.196;2023-02-02T10:27:59;102032.12;;;25.94;24.26
63916;BME280;50094;51.356;-0.196;2023-02-02T10:30:38;102033.06;;;25.89;24.28
63916;BME280;50094;51.356;-0.196;2023-02-02T10:33:15;102036.06;;;25.88;24.29
63916;BME280;50094;51.356;-0.196;2023-02-02T10:35:51;102043.23;;;25.89;24.32
63916;BME280;50094;51.356;-0.196;2023-02-02T10:38:23;102043.19;;;25.90;24.32
63916;BME280;50094;51.356;-0.196;2023-02-02T10:40:58;102043.33;;;25.88;24.36
63916;BME280;50094;51.356;-0.196;2023-02-02T10:43:50;102048.35;;;25.90;24.35
63916;BME280;50094;51.356;-0.196;2023-02-02T10:46:23;102056.60;;;25.88;24.36
63916;BME280;50094;51.356;-0.196;2023-02-02T10:49:04;102056.22;;;25.92;24.36
63916;BME280;50094;51.356;-0.196;2023-02-02T10:51:37;102059.26;;;25.93;24.37
63916;BME280;50094;51.356;-0.196;2023-02-02T10:54:09;102060.44;;;25.97;24.36
63916;BME280;50094;51.356;-0.196;2023-02-02T10:56:48;102061.31;;;25.96;24.36
63916;BME280;50094;51.356;-0.196;2023-02-02T10:59:21;102054.50;;;25.94;24.37
63916;BME280;50094;51.356;-0.196;2023-02-02T11:01:50;102050.48;;;26.20;24.35
63916;BME280;50094;51.356;-0.196;2023-02-02T11:04:19;102048.86;;;25.98;24.34
63916;BME280;50094;51.356;-0.196;2023-02-02T11:06:48;102049.07;;;25.93;24.36
63916;BME280;50094;51.356;-0.196;2023-02-02T11:09:18;102041.15;;;25.94;24.37
63916;BME280;50094;51.356;-0.196;2023-02-02T11:11:50;102035.72;;;25.93;24.39
63916;BME280;50094;51.356;-0.196;2023-02-02T11:14:25;102032.09;;;25.99;24.38
63916;BME280;50094;51.356;-0.196;2023-02-02T11:17:01;102032.01;;;26.00;24.37
63916;BME280;50094;51.356;-0.196;2023-02-02T11:19:30;102028.38;;;25.80;24.35
63916;BME280;50094;51.356;-0.196;2023-02-02T11:22:00;102023.33;;;25.78;24.36
63916;BME280;50094;51.356;-0.196;2023-02-02T11:24:29;102018.60;;;26.02;24.35
63916;BME280;50094;51.356;-0.196;2023-02-02T11:26:59;102015.26;;;26.03;24.36
63916;BME280;50094;51.356;-0.196;2023-02-02T11:29:30;102011.11;;;26.01;24.37
63916;BME280;50094;51.356;-0.196;2023-02-02T11:31:58;102011.17;;;26.13;24.33
63916;BME280;50094;51.356;-0.196;2023-02-02T11:34:43;102007.46;;;26.12;24.32
63916;BME280;50094;51.356;-0.196;2023-02-02T11:37:12;102005.85;;;25.85;24.31
63916;BME280;50094;51.356;-0.196;2023-02-02T11:39:40;102006.58;;;26.00;24.31
63916;BME280;50094;51.356;-0.196;2023-02-02T11:42:12;102007.94;;;25.97;24.33
63916;BME280;50094;51.356;-0.196;2023-02-02T11:44:43;102001.26;;;25.95;24.35
63916;BME280;50094;51.356;-0.196;2023-02-02T11:47:19;101994.43;;;26.15;24.38
63916;BME280;50094;51.356;-0.196;2023-02-02T11:49:47;101987.00;;;25.90;24.41
63916;BME280;50094;51.356;-0.196;2023-02-02T11:52:17;101985.12;;;26.11;24.44
63916;BME280;50094;51.356;-0.196;2023-02-02T11:54:47;101982.71;;;25.87;24.46
63916;BME280;50094;51.356;-0.196;2023-02-02T11:57:17;101978.78;;;25.87;24.47
63916;BME280;50094;51.356;-0.196;2023-02-02T11:59:46;101976.38;;;25.87;24.48
63916;BME280;50094;51.356;-0.196;2023-02-02T12:02:29;101980.36;;;25.85;24.49
63916;BME280;50094;51.356;-0.196;2023-02-02T12:05:30;101974.54;;;26.06;24.49
63916;BME280;50094;51.356;-0.196;2023-02-02T12:07:59;101975.34;;;25.79;24.52
63916;BME280;50094;51.356;-0.196;2023-02-02T12:10:35;101967.92;;;25.78;24.54
63916;BME280;50094;51.356;-0.196;2023-02-02T12:13:08;101969.66;;;25.53;24.56
63916;BME280;50094;51.356;-0.196;2023-02-02T12:15:46;101970.44;;;25.76;24.57
63916;BME280;50094;51.356;-0.196;2023-02-02T12:18:31;101971.32;;;25.75;24.59
63916;BME280;50094;51.356;-0.196;2023-02-02T12:21:04;101965.74;;;25.72;24.61
63916;BME280;50094;51.356;-0.196;2023-02-02T12:23:42;101970.23;;;25.71;24.61
63916;BME280;50094;51.356;-0.196;2023-02-02T12:26:20;101964.60;;;25.89;24.64
63916;BME280;50094;51.356;-0.196;2023-02-02T12:29:01;101963.03;;;25.86;24.68
63916;BME280;50094;51.356;-0.196;2023-02-02T12:31:42;101965.00;;;25.64;24.69
63916;BME280;50094;51.356;-0.196;2023-02-02T12:34:22;101967.84;;;25.86;24.70
63916;BME280;50094;51.356;-0.196;2023-02-02T12:37:00;101965.79;;;25.85;24.73
63916;BME280;50094;51.356;-0.196;2023-02-02T12:39:33;101959.94;;;25.63;24.75
63916;BME280;50094;51.356;-0.196;2023-02-02T12:42:46;101958.47;;;25.67;24.74
63916;BME280;50094;51.356;-0.196;2023-02-02T12:45:33;101948.97;;;25.68;24.74
63916;BME280;50094;51.356;-0.196;2023-02-02T12:48:13;101944.60;;;25.71;24.74
63916;BME280;50094;51.356;-0.196;2023-02-02T12:50:55;101944.48;;;25.72;24.72
63916;BME280;50094;51.356;-0.196;2023-02-02T12:53:37;101942.45;;;25.47;24.72
63916;BME280;50094;51.356;-0.196;2023-02-02T12:56:16;101942.64;;;25.65;24.74